sensor_id;sensor_type;location;lat;lon;timestamp;P1;durP1;ratioP1;P2;durP2;ratioP2
66012;SDS011;52783;50.502;8.190;2022-10-16T00:00:40;2.45;;;1.85;;
66012;SDS011;52783;50.502;8.190;2022-10-16T00:03:08;6.28;;;2.08;;
66012;SDS011;52783;50.502;8.190;2022-10-16T00:05:38;10.15;;;2.45;;
66012;SDS011;52783;50.502;8.190;2022-10-16T00:08:05;5.22;;;1.92;;
66012;SDS011;52783;50.502;8.190;2022-10-16T00:10:31;5.47;;;2.30;;
66012;SDS011;52783;50.502;8.190;2022-10-16T00:12:56;3.20;;;2.15;;
66012;SDS011;52783;50.502;8.190;2022-10-16T00:15:22;3.30;;;1.90;;
66012;SDS011;52783;50.502;8.190;2022-10-16T00:17:47;8.60;;;1.90;;
66012;SDS011;52783;50.502;8.190;2022-10-16T00:20:13;10.18;;;2.10;;
66012;SDS011;52783;50.502;8.190;2022-10-16T00:22:38;7.97;;;2.22;;
66012;SDS011;52783;50.502;8.190;2022-10-16T00:25:05;8.73;;;2.28;;
66012;SDS011;52783;50.502;8.190;2022-10-16T00:27:30;6.55;;;2.10;;
66012;SDS011;52783;50.502;8.190;2022-10-16T00:29:56;2.95;;;2.20;;
66012;SDS011;52783;50.502;8.190;2022-10-16T00:32:21;2.15;;;1.95;;
66012;SDS011;52783;50.502;8.190;2022-10-16T00:34:47;3.25;;;2.10;;
66012;SDS011;52783;50.502;8.190;2022-10-16T00:37:13;7.70;;;2.03;;
66012;SDS011;52783;50.502;8.190;2022-10-16T00:39:38;8.23;;;2.45;;
66012;SDS011;52783;50.502;8.190;2022-10-16T00:42:04;6.60;;;3.13;;
66012;SDS011;52783;50.502;8.190;2022-10-16T00:44:43;4.50;;;2.25;;
66012;SDS011;52783;50.502;8.190;2022-10-16T00:47:34;6.45;;;2.30;;
66012;SDS011;52783;50.502;8.190;2022-10-16T00:52:43;7.05;;;2.28;;
66012;SDS011;52783;50.502;8.190;2022-10-16T00:55:11;5.28;;;2.35;;
66012;SDS011;52783;50.502;8.190;2022-10-16T00:57:37;2.72;;;2.53;;
66012;SDS011;52783;50.502;8.190;2022-10-16T01:00:04;4.38;;;2.40;;
66012;SDS011;52783;50.502;8.190;2022-10-16T01:02:33;5.00;;;2.42;;
66012;SDS011;52783;50.502;8.190;2022-10-16T01:04:59;5.13;;;2.53;;
66012;SDS011;52783;50.502;8.190;2022-10-16T01:10:17;4.78;;;2.30;;
66012;SDS011;52783;50.502;8.190;2022-10-16T01:12:50;2.63;;;2.43;;
66012;SDS011;52783;50.502;8.190;2022-10-16T01:15:30;5.55;;;2.50;;
66012;SDS011;52783;50.502;8.190;2022-10-16T01:20:35;8.10;;;2.70;;
66012;SDS011;52783;50.502;8.190;2022-10-16T01:26:13;3.42;;;2.25;;
66012;SDS011;52783;50.502;8.190;2022-10-16T01:28:57;4.03;;;2.53;;
66012;SDS011;52783;50.502;8.190;2022-10-16T01:32:00;7.57;;;2.70;;
66012;SDS011;52783;50.502;8.190;2022-10-16T01:34:39;7.43;;;2.70;;
66012;SDS011;52783;50.502;8.190;2022-10-16T01:37:14;7.40;;;2.60;;
66012;SDS011;52783;50.502;8.190;2022-10-16T01:39:45;5.60;;;2.70;;
66012;SDS011;52783;50.502;8.190;2022-10-16T01:42:22;5.32;;;2.70;;
66012;SDS011;52783;50.502;8.190;2022-10-16T01:44:51;8.27;;;2.38;;
66012;SDS011;52783;50.502;8.190;2022-10-16T01:47:18;2.70;;;2.50;;
66012;SDS011;52783;50.502;8.190;2022-10-16T01:49:48;6.72;;;2.35;;
66012;SDS011;52783;50.502;8.190;2022-10-16T01:52:17;3.17;;;2.60;;
66012;SDS011;52783;50.502;8.190;2022-10-16T01:54:46;4.18;;;2.58;;
66012;SDS011;52783;50.502;8.190;2022-10-16T01:57:14;6.28;;;2.45;;
66012;SDS011;52783;50.502;8.190;2022-10-16T01:59:44;9.68;;;2.40;;
66012;SDS011;52783;50.502;8.190;2022-10-16T02:02:17;8.75;;;2.60;;
66012;SDS011;52783;50.502;8.190;2022-10-16T02:04:48;4.90;;;2.50;;
66012;SDS011;52783;50.502;8.190;2022-10-16T02:07:18;3.53;;;2.67;;
66012;SDS011;52783;50.502;8.190;2022-10-16T02:09:43;3.47;;;2.20;;
66012;SDS011;52783;50.502;8.190;2022-10-16T02:12:31;6.78;;;2.00;;
66012;SDS011;52783;50.502;8.190;2022-10-16T02:14:57;5.45;;;2.13;;
66012;SDS011;52783;50.502;8.190;2022-10-16T02:17:23;10.95;;;2.75;;
66012;SDS011;52783;50.502;8.190;2022-10-16T02:19:50;16.98;;;3.42;;
66012;SDS011;52783;50.502;8.190;2022-10-16T02:22:20;3.25;;;2.42;;
66012;SDS011;52783;50.502;8.190;2022-10-16T02:30:24;9.40;;;3.35;;
66012;SDS011;52783;50.502;8.190;2022-10-16T02:32:50;4.70;;;2.78;;
66012;SDS011;52783;50.502;8.190;2022-10-16T02:35:18;14.10;;;3.15;;
66012;SDS011;52783;50.502;8.190;2022-10-16T02:37:46;7.53;;;2.80;;
66012;SDS011;52783;50.502;8.190;2022-10-16T02:40:13;6.22;;;2.85;;
66012;SDS011;52783;50.502;8.190;2022-10-16T02:42:40;9.10;;;5.15;;
66012;SDS011;52783;50.502;8.190;2022-10-16T02:45:07;5.95;;;2.83;;
66012;SDS011;52783;50.502;8.190;2022-10-16T02:47:34;12.70;;;3.20;;
66012;SDS011;52783;50.502;8.190;2022-10-16T02:49:59;3.65;;;3.05;;
66012;SDS011;52783;50.502;8.190;2022-10-16T02:52:25;4.43;;;2.92;;
66012;SDS011;52783;50.502;8.190;2022-10-16T02:54:50;9.68;;;3.00;;
66012;SDS011;52783;50.502;8.190;2022-10-16T02:57:16;3.38;;;2.83;;
66012;SDS011;52783;50.502;8.190;2022-10-16T02:59:42;6.75;;;2.97;;
66012;SDS011;52783;50.502;8.190;2022-10-16T03:02:08;7.78;;;2.80;;
66012;SDS011;52783;50.502;8.190;2022-10-16T03:04:34;4.28;;;3.20;;
66012;SDS011;52783;50.502;8.190;2022-10-16T03:06:59;4.95;;;2.80;;
66012;SDS011;52783;50.502;8.190;2022-10-16T03:09:25;10.02;;;2.45;;
66012;SDS011;52783;50.502;8.190;2022-10-16T03:11:51;10.57;;;3.10;;
66012;SDS011;52783;50.502;8.190;2022-10-16T03:14:17;8.60;;;2.80;;
66012;SDS011;52783;50.502;8.190;2022-10-16T03:16:42;7.20;;;2.50;;
66012;SDS011;52783;50.502;8.190;2022-10-16T03:19:08;5.40;;;2.40;;
66012;SDS011;52783;50.502;8.190;2022-10-16T03:21:33;8.25;;;2.55;;
66012;SDS011;52783;50.502;8.190;2022-10-16T03:23:59;6.50;;;2.90;;
66012;SDS011;52783;50.502;8.190;2022-10-16T03:26:25;7.78;;;2.60;;
66012;SDS011;52783;50.502;8.190;2022-10-16T03:28:50;9.55;;;2.92;;
66012;SDS011;52783;50.502;8.190;2022-10-16T03:31:16;10.45;;;2.53;;
66012;SDS011;52783;50.502;8.190;2022-10-16T03:33:41;5.72;;;2.53;;
66012;SDS011;52783;50.502;8.190;2022-10-16T03:36:07;6.32;;;2.33;;
66012;SDS011;52783;50.502;8.190;2022-10-16T03:38:32;4.15;;;2.33;;
66012;SDS011;52783;50.502;8.190;2022-10-16T03:40:58;4.18;;;2.30;;
66012;SDS011;52783;50.502;8.190;2022-10-16T03:43:23;4.95;;;2.35;;
66012;SDS011;52783;50.502;8.190;2022-10-16T03:45:50;5.45;;;2.28;;
66012;SDS011;52783;50.502;8.190;2022-10-16T03:48:16;2.72;;;2.53;;
66012;SDS011;52783;50.502;8.190;2022-10-16T03:50:42;2.40;;;2.20;;
66012;SDS011;52783;50.502;8.190;2022-10-16T03:53:08;8.82;;;2.67;;
66012;SDS011;52783;50.502;8.190;2022-10-16T03:55:34;6.53;;;2.38;;
66012;SDS011;52783;50.502;8.190;2022-10-16T03:57:59;5.20;;;2.40;;
66012;SDS011;52783;50.502;8.190;2022-10-16T04:00:25;4.45;;;2.00;;
66012;SDS011;52783;50.502;8.190;2022-10-16T04:02:51;4.05;;;2.30;;
66012;SDS011;52783;50.502;8.190;2022-10-16T04:05:16;13.38;;;2.22;;
66012;SDS011;52783;50.502;8.190;2022-10-16T04:07:42;3.88;;;1.95;;
66012;SDS011;52783;50.502;8.190;2022-10-16T04:10:07;5.75;;;1.92;;
66012;SDS011;52783;50.502;8.190;2022-10-16T04:12:33;5.55;;;2.10;;
66012;SDS011;52783;50.502;8.190;2022-10-16T04:14:59;2.35;;;1.50;;
66012;SDS011;52783;50.502;8.190;2022-10-16T04:17:24;3.40;;;1.80;;
66012;SDS011;52783;50.502;8.190;2022-10-16T04:19:50;2.58;;;1.50;;
66012;SDS011;52783;50.502;8.190;2022-10-16T04:22:15;3.78;;;1.80;;
66012;SDS011;52783;50.502;8.190;2022-10-16T04:24:41;4.18;;;1.42;;
66012;SDS011;52783;50.502;8.190;2022-10-16T04:27:06;6.60;;;1.50;;
66012;SDS011;52783;50.502;8.190;2022-10-16T04:29:32;1.88;;;1.52;;
66012;SDS011;52783;50.502;8.190;2022-10-16T04:31:57;5.22;;;1.75;;
66012;SDS011;52783;50.502;8.190;2022-10-16T04:34:23;9.88;;;2.47;;
66012;SDS011;52783;50.502;8.190;2022-10-16T04:36:48;6.05;;;1.60;;
66012;SDS011;52783;50.502;8.190;2022-10-16T04:39:14;6.32;;;1.52;;
66012;SDS011;52783;50.502;8.190;2022-10-16T04:41:41;6.57;;;1.23;;
66012;SDS011;52783;50.502;8.190;2022-10-16T04:44:06;5.00;;;1.75;;
66012;SDS011;52783;50.502;8.190;2022-10-16T04:46:32;4.00;;;1.45;;
66012;SDS011;52783;50.502;8.190;2022-10-16T04:48:57;1.85;;;1.20;;
66012;SDS011;52783;50.502;8.190;2022-10-16T04:51:23;5.45;;;2.40;;
66012;SDS011;52783;50.502;8.190;2022-10-16T04:53:50;1.50;;;1.17;;
66012;SDS011;52783;50.502;8.190;2022-10-16T04:56:16;3.80;;;1.42;;
66012;SDS011;52783;50.502;8.190;2022-10-16T04:58:41;3.72;;;1.50;;
66012;SDS011;52783;50.502;8.190;2022-10-16T05:01:07;4.63;;;1.50;;
66012;SDS011;52783;50.502;8.190;2022-10-16T05:03:32;3.03;;;1.67;;
66012;SDS011;52783;50.502;8.190;2022-10-16T05:05:58;9.10;;;1.65;;
66012;SDS011;52783;50.502;8.190;2022-10-16T05:08:24;3.40;;;1.88;;
66012;SDS011;52783;50.502;8.190;2022-10-16T05:10:49;5.90;;;1.60;;
66012;SDS011;52783;50.502;8.190;2022-10-16T05:13:15;3.85;;;1.70;;
66012;SDS011;52783;50.502;8.190;2022-10-16T05:15:41;6.28;;;1.80;;
66012;SDS011;52783;50.502;8.190;2022-10-16T05:18:06;3.25;;;1.90;;
66012;SDS011;52783;50.502;8.190;2022-10-16T05:20:33;1.67;;;1.40;;
66012;SDS011;52783;50.502;8.190;2022-10-16T05:22:59;5.47;;;1.73;;
66012;SDS011;52783;50.502;8.190;2022-10-16T05:25:24;4.18;;;1.88;;
66012;SDS011;52783;50.502;8.190;2022-10-16T05:27:50;5.28;;;2.63;;
66012;SDS011;52783;50.502;8.190;2022-10-16T05:30:16;4.57;;;2.00;;
66012;SDS011;52783;50.502;8.190;2022-10-16T05:32:46;3.35;;;1.67;;
66012;SDS011;52783;50.502;8.190;2022-10-16T05:35:13;2.53;;;1.50;;
66012;SDS011;52783;50.502;8.190;2022-10-16T05:37:38;8.20;;;1.63;;
66012;SDS011;52783;50.502;8.190;2022-10-16T05:40:04;5.10;;;1.85;;
66012;SDS011;52783;50.502;8.190;2022-10-16T05:42:30;3.67;;;1.88;;
66012;SDS011;52783;50.502;8.190;2022-10-16T05:44:56;8.35;;;1.65;;
66012;SDS011;52783;50.502;8.190;2022-10-16T05:47:21;2.65;;;1.50;;
66012;SDS011;52783;50.502;8.190;2022-10-16T05:49:47;10.15;;;1.75;;
66012;SDS011;52783;50.502;8.190;2022-10-16T05:52:12;5.13;;;1.60;;
66012;SDS011;52783;50.502;8.190;2022-10-16T05:54:38;3.70;;;1.58;;
66012;SDS011;52783;50.502;8.190;2022-10-16T05:57:03;2.67;;;1.50;;
66012;SDS011;52783;50.502;8.190;2022-10-16T05:59:30;5.30;;;1.70;;
66012;SDS011;52783;50.502;8.190;2022-10-16T06:01:56;3.40;;;1.70;;
66012;SDS011;52783;50.502;8.190;2022-10-16T06:04:22;4.00;;;1.60;;
66012;SDS011;52783;50.502;8.190;2022-10-16T06:06:47;2.03;;;1.40;;
66012;SDS011;52783;50.502;8.190;2022-10-16T06:09:13;6.10;;;1.75;;
66012;SDS011;52783;50.502;8.190;2022-10-16T06:11:38;2.15;;;1.50;;
66012;SDS011;52783;50.502;8.190;2022-10-16T06:14:04;2.03;;;1.50;;
66012;SDS011;52783;50.502;8.190;2022-10-16T06:16:32;2.15;;;1.60;;
66012;SDS011;52783;50.502;8.190;2022-10-16T06:18:59;6.35;;;1.95;;
66012;SDS011;52783;50.502;8.190;2022-10-16T06:21:25;1.90;;;1.80;;
66012;SDS011;52783;50.502;8.190;2022-10-16T06:23:52;3.30;;;1.90;;
66012;SDS011;52783;50.502;8.190;2022-10-16T06:26:20;5.88;;;1.90;;
66012;SDS011;52783;50.502;8.190;2022-10-16T06:28:48;1.80;;;1.70;;
66012;SDS011;52783;50.502;8.190;2022-10-16T06:31:13;5.20;;;1.55;;
66012;SDS011;52783;50.502;8.190;2022-10-16T06:33:40;3.75;;;1.55;;
66012;SDS011;52783;50.502;8.190;2022-10-16T06:36:09;1.77;;;1.60;;
66012;SDS011;52783;50.502;8.190;2022-10-16T06:38:39;6.38;;;1.30;;
66012;SDS011;52783;50.502;8.190;2022-10-16T06:41:06;4.82;;;1.30;;
66012;SDS011;52783;50.502;8.190;2022-10-16T06:43:32;3.33;;;1.20;;
66012;SDS011;52783;50.502;8.190;2022-10-16T06:46:00;2.22;;;1.30;;
66012;SDS011;52783;50.502;8.190;2022-10-16T06:48:27;2.85;;;1.60;;
66012;SDS011;52783;50.502;8.190;2022-10-16T06:50:56;3.00;;;1.60;;
66012;SDS011;52783;50.502;8.190;2022-10-16T06:53:26;2.05;;;1.73;;
66012;SDS011;52783;50.502;8.190;2022-10-16T06:55:53;4.63;;;2.25;;
66012;SDS011;52783;50.502;8.190;2022-10-16T06:58:18;4.53;;;2.30;;
66012;SDS011;52783;50.502;8.190;2022-10-16T07:00:44;4.15;;;2.33;;
66012;SDS011;52783;50.502;8.190;2022-10-16T07:03:10;7.90;;;2.10;;
66012;SDS011;52783;50.502;8.190;2022-10-16T07:05:38;5.15;;;2.60;;
66012;SDS011;52783;50.502;8.190;2022-10-16T07:10:33;6.93;;;2.40;;
66012;SDS011;52783;50.502;8.190;2022-10-16T07:12:59;5.13;;;1.83;;
66012;SDS011;52783;50.502;8.190;2022-10-16T07:15:26;5.35;;;1.73;;
66012;SDS011;52783;50.502;8.190;2022-10-16T07:17:52;2.20;;;2.00;;
66012;SDS011;52783;50.502;8.190;2022-10-16T07:20:17;9.65;;;5.25;;
66012;SDS011;52783;50.502;8.190;2022-10-16T07:22:43;7.78;;;4.90;;
66012;SDS011;52783;50.502;8.190;2022-10-16T07:25:09;17.30;;;9.60;;
66012;SDS011;52783;50.502;8.190;2022-10-16T07:27:34;25.40;;;11.68;;
66012;SDS011;52783;50.502;8.190;2022-10-16T07:30:00;6.85;;;2.50;;
66012;SDS011;52783;50.502;8.190;2022-10-16T07:32:26;1.90;;;1.80;;
66012;SDS011;52783;50.502;8.190;2022-10-16T07:34:52;6.38;;;2.33;;
66012;SDS011;52783;50.502;8.190;2022-10-16T07:37:17;10.95;;;2.22;;
66012;SDS011;52783;50.502;8.190;2022-10-16T07:39:43;1.90;;;1.80;;
66012;SDS011;52783;50.502;8.190;2022-10-16T07:42:09;3.35;;;2.10;;
66012;SDS011;52783;50.502;8.190;2022-10-16T07:44:34;6.40;;;2.53;;
66012;SDS011;52783;50.502;8.190;2022-10-16T07:47:00;2.13;;;1.80;;
66012;SDS011;52783;50.502;8.190;2022-10-16T07:49:26;1.98;;;1.88;;
66012;SDS011;52783;50.502;8.190;2022-10-16T07:51:51;4.30;;;1.95;;
66012;SDS011;52783;50.502;8.190;2022-10-16T07:54:16;7.18;;;2.53;;
66012;SDS011;52783;50.502;8.190;2022-10-16T07:56:42;3.67;;;2.60;;
66012;SDS011;52783;50.502;8.190;2022-10-16T07:59:08;5.90;;;3.70;;
66012;SDS011;52783;50.502;8.190;2022-10-16T08:01:33;3.97;;;2.20;;
66012;SDS011;52783;50.502;8.190;2022-10-16T08:03:59;3.20;;;2.83;;
66012;SDS011;52783;50.502;8.190;2022-10-16T08:06:24;3.58;;;2.08;;
66012;SDS011;52783;50.502;8.190;2022-10-16T08:08:50;4.88;;;2.45;;
66012;SDS011;52783;50.502;8.190;2022-10-16T08:11:16;11.13;;;2.00;;
66012;SDS011;52783;50.502;8.190;2022-10-16T08:13:41;10.48;;;2.40;;
66012;SDS011;52783;50.502;8.190;2022-10-16T08:16:07;4.05;;;1.80;;
66012;SDS011;52783;50.502;8.190;2022-10-16T08:18:34;6.15;;;1.92;;
66012;SDS011;52783;50.502;8.190;2022-10-16T08:21:01;5.85;;;2.08;;
66012;SDS011;52783;50.502;8.190;2022-10-16T08:23:27;5.88;;;2.20;;
66012;SDS011;52783;50.502;8.190;2022-10-16T08:25:54;1.50;;;1.40;;
66012;SDS011;52783;50.502;8.190;2022-10-16T08:28:20;7.53;;;2.20;;
66012;SDS011;52783;50.502;8.190;2022-10-16T08:30:47;4.25;;;1.85;;
66012;SDS011;52783;50.502;8.190;2022-10-16T08:33:12;6.95;;;1.75;;
66012;SDS011;52783;50.502;8.190;2022-10-16T08:35:38;2.88;;;1.50;;
66012;SDS011;52783;50.502;8.190;2022-10-16T08:38:04;2.60;;;1.63;;
66012;SDS011;52783;50.502;8.190;2022-10-16T08:40:31;13.55;;;1.95;;
66012;SDS011;52783;50.502;8.190;2022-10-16T08:48:14;3.22;;;2.20;;
66012;SDS011;52783;50.502;8.190;2022-10-16T08:50:42;8.77;;;2.20;;
66012;SDS011;52783;50.502;8.190;2022-10-16T08:53:13;3.72;;;2.70;;
66012;SDS011;52783;50.502;8.190;2022-10-16T08:55:50;7.32;;;2.80;;
66012;SDS011;52783;50.502;8.190;2022-10-16T08:58:18;12.70;;;4.00;;
66012;SDS011;52783;50.502;8.190;2022-10-16T09:00:50;4.03;;;2.05;;
66012;SDS011;52783;50.502;8.190;2022-10-16T09:09:25;5.80;;;2.13;;
66012;SDS011;52783;50.502;8.190;2022-10-16T09:12:08;10.48;;;4.28;;
66012;SDS011;52783;50.502;8.190;2022-10-16T09:17:44;3.80;;;2.17;;
66012;SDS011;52783;50.502;8.190;2022-10-16T09:23:08;5.60;;;1.83;;
66012;SDS011;52783;50.502;8.190;2022-10-16T09:25:39;5.18;;;1.60;;
66012;SDS011;52783;50.502;8.190;2022-10-16T09:28:08;1.52;;;1.35;;
66012;SDS011;52783;50.502;8.190;2022-10-16T09:30:35;2.95;;;1.50;;
66012;SDS011;52783;50.502;8.190;2022-10-16T09:33:00;3.20;;;1.52;;
66012;SDS011;52783;50.502;8.190;2022-10-16T09:35:31;6.72;;;1.90;;
66012;SDS011;52783;50.502;8.190;2022-10-16T09:38:05;8.52;;;1.45;;
66012;SDS011;52783;50.502;8.190;2022-10-16T09:40:32;1.77;;;1.33;;
66012;SDS011;52783;50.502;8.190;2022-10-16T09:45:34;6.68;;;2.15;;
66012;SDS011;52783;50.502;8.190;2022-10-16T09:48:01;6.50;;;1.40;;
66012;SDS011;52783;50.502;8.190;2022-10-16T09:50:36;4.13;;;1.30;;
66012;SDS011;52783;50.502;8.190;2022-10-16T09:53:02;3.30;;;0.85;;
66012;SDS011;52783;50.502;8.190;2022-10-16T09:55:35;1.33;;;1.20;;
66012;SDS011;52783;50.502;8.190;2022-10-16T09:58:01;2.80;;;1.35;;
66012;SDS011;52783;50.502;8.190;2022-10-16T10:00:26;1.88;;;0.82;;
66012;SDS011;52783;50.502;8.190;2022-10-16T10:02:52;1.63;;;1.52;;
66012;SDS011;52783;50.502;8.190;2022-10-16T10:05:23;3.13;;;1.25;;
66012;SDS011;52783;50.502;8.190;2022-10-16T10:07:55;0.98;;;0.82;;
66012;SDS011;52783;50.502;8.190;2022-10-16T10:12:50;1.10;;;1.00;;
66012;SDS011;52783;50.502;8.190;2022-10-16T10:15:16;3.60;;;1.00;;
66012;SDS011;52783;50.502;8.190;2022-10-16T10:17:50;2.00;;;0.95;;
66012;SDS011;52783;50.502;8.190;2022-10-16T10:22:52;2.42;;;1.08;;
66012;SDS011;52783;50.502;8.190;2022-10-16T10:47:24;4.13;;;1.05;;
66012;SDS011;52783;50.502;8.190;2022-10-16T10:53:03;1.00;;;1.00;;
66012;SDS011;52783;50.502;8.190;2022-10-16T11:03:55;8.27;;;1.33;;
66012;SDS011;52783;50.502;8.190;2022-10-16T11:06:35;1.30;;;0.73;;
66012;SDS011;52783;50.502;8.190;2022-10-16T11:11:38;0.68;;;0.60;;
66012;SDS011;52783;50.502;8.190;2022-10-16T11:14:28;3.40;;;1.00;;
66012;SDS011;52783;50.502;8.190;2022-10-16T11:17:13;1.02;;;0.82;;
66012;SDS011;52783;50.502;8.190;2022-10-16T11:20:02;14.10;;;1.55;;
66012;SDS011;52783;50.502;8.190;2022-10-16T11:22:42;7.18;;;0.93;;
66012;SDS011;52783;50.502;8.190;2022-10-16T11:25:30;4.00;;;0.80;;
66012;SDS011;52783;50.502;8.190;2022-10-16T11:28:07;0.90;;;0.90;;
66012;SDS011;52783;50.502;8.190;2022-10-16T11:30:44;7.95;;;1.10;;
66012;SDS011;52783;50.502;8.190;2022-10-16T11:38:38;2.53;;;0.90;;
66012;SDS011;52783;50.502;8.190;2022-10-16T11:41:18;3.20;;;0.77;;
66012;SDS011;52783;50.502;8.190;2022-10-16T11:43:55;2.88;;;0.85;;
66012;SDS011;52783;50.502;8.190;2022-10-16T11:46:43;1.17;;;0.88;;
66012;SDS011;52783;50.502;8.190;2022-10-16T11:49:16;0.60;;;0.60;;
66012;SDS011;52783;50.502;8.190;2022-10-16T11:51:51;6.55;;;0.93;;
66012;SDS011;52783;50.502;8.190;2022-10-16T11:57:26;6.25;;;1.10;;
66012;SDS011;52783;50.502;8.190;2022-10-16T12:00:17;1.92;;;1.00;;
66012;SDS011;52783;50.502;8.190;2022-10-16T12:02:50;1.33;;;0.73;;
66012;SDS011;52783;50.502;8.190;2022-10-16T12:08:44;1.13;;;1.02;;
66012;SDS011;52783;50.502;8.190;2022-10-16T12:13:48;1.50;;;1.00;;
66012;SDS011;52783;50.502;8.190;2022-10-16T12:18:40;1.15;;;0.90;;
66012;SDS011;52783;50.502;8.190;2022-10-16T12:21:07;2.88;;;0.65;;
66012;SDS011;52783;50.502;8.190;2022-10-16T12:23:37;2.40;;;0.80;;
66012;SDS011;52783;50.502;8.190;2022-10-16T12:26:11;1.42;;;1.00;;
66012;SDS011;52783;50.502;8.190;2022-10-16T12:28:37;2.63;;;1.10;;
66012;SDS011;52783;50.502;8.190;2022-10-16T12:31:07;0.80;;;0.60;;
66012;SDS011;52783;50.502;8.190;2022-10-16T12:33:42;0.70;;;0.70;;
66012;SDS011;52783;50.502;8.190;2022-10-16T12:36:28;1.42;;;0.60;;
66012;SDS011;52783;50.502;8.190;2022-10-16T12:38:58;2.50;;;0.88;;
66012;SDS011;52783;50.502;8.190;2022-10-16T12:41:26;0.90;;;0.85;;
66012;SDS011;52783;50.502;8.190;2022-10-16T12:43:56;1.25;;;0.95;;
66012;SDS011;52783;50.502;8.190;2022-10-16T12:51:39;1.30;;;0.98;;
66012;SDS011;52783;50.502;8.190;2022-10-16T12:57:08;1.05;;;0.75;;
66012;SDS011;52783;50.502;8.190;2022-10-16T13:05:16;2.20;;;0.70;;
66012;SDS011;52783;50.502;8.190;2022-10-16T13:10:59;1.30;;;0.70;;
66012;SDS011;52783;50.502;8.190;2022-10-16T13:19:22;2.13;;;1.15;;
66012;SDS011;52783;50.502;8.190;2022-10-16T13:22:14;0.60;;;0.60;;
66012;SDS011;52783;50.502;8.190;2022-10-16T13:27:54;2.70;;;0.80;;
66012;SDS011;52783;50.502;8.190;2022-10-16T13:30:38;6.18;;;1.02;;
66012;SDS011;52783;50.502;8.190;2022-10-16T13:35:45;1.13;;;0.57;;
66012;SDS011;52783;50.502;8.190;2022-10-16T13:38:17;4.18;;;0.88;;
66012;SDS011;52783;50.502;8.190;2022-10-16T13:41:18;1.30;;;0.70;;
66012;SDS011;52783;50.502;8.190;2022-10-16T13:43:50;6.60;;;0.93;;
66012;SDS011;52783;50.502;8.190;2022-10-16T13:46:19;1.70;;;0.68;;
66012;SDS011;52783;50.502;8.190;2022-10-16T13:48:56;1.88;;;0.90;;
66012;SDS011;52783;50.502;8.190;2022-10-16T13:51:26;1.27;;;1.13;;
66012;SDS011;52783;50.502;8.190;2022-10-16T13:53:54;4.57;;;1.00;;
66012;SDS011;52783;50.502;8.190;2022-10-16T13:56:21;1.60;;;1.50;;
66012;SDS011;52783;50.502;8.190;2022-10-16T13:59:02;2.78;;;0.80;;
66012;SDS011;52783;50.502;8.190;2022-10-16T14:01:47;2.97;;;0.55;;
66012;SDS011;52783;50.502;8.190;2022-10-16T14:04:14;2.03;;;0.88;;
66012;SDS011;52783;50.502;8.190;2022-10-16T14:06:41;0.98;;;0.95;;
66012;SDS011;52783;50.502;8.190;2022-10-16T14:09:20;6.05;;;1.30;;
66012;SDS011;52783;50.502;8.190;2022-10-16T14:11:58;4.53;;;3.58;;
66012;SDS011;52783;50.502;8.190;2022-10-16T14:16:54;1.45;;;1.23;;
66012;SDS011;52783;50.502;8.190;2022-10-16T14:19:20;5.07;;;1.77;;
66012;SDS011;52783;50.502;8.190;2022-10-16T14:21:49;1.73;;;0.63;;
66012;SDS011;52783;50.502;8.190;2022-10-16T14:24:34;2.25;;;0.60;;
66012;SDS011;52783;50.502;8.190;2022-10-16T14:27:00;1.52;;;0.70;;
66012;SDS011;52783;50.502;8.190;2022-10-16T14:29:27;0.50;;;0.50;;
66012;SDS011;52783;50.502;8.190;2022-10-16T14:31:57;0.90;;;0.90;;
66012;SDS011;52783;50.502;8.190;2022-10-16T14:34:30;1.58;;;0.63;;
66012;SDS011;52783;50.502;8.190;2022-10-16T14:37:01;0.60;;;0.57;;
66012;SDS011;52783;50.502;8.190;2022-10-16T14:39:51;1.23;;;0.70;;
66012;SDS011;52783;50.502;8.190;2022-10-16T14:42:18;2.25;;;0.80;;
66012;SDS011;52783;50.502;8.190;2022-10-16T14:44:45;0.73;;;0.73;;
66012;SDS011;52783;50.502;8.190;2022-10-16T14:47:13;5.38;;;0.98;;
66012;SDS011;52783;50.502;8.190;2022-10-16T14:49:47;0.70;;;0.70;;
66012;SDS011;52783;50.502;8.190;2022-10-16T14:52:12;3.67;;;0.68;;
66012;SDS011;52783;50.502;8.190;2022-10-16T14:54:39;0.85;;;0.82;;
66012;SDS011;52783;50.502;8.190;2022-10-16T14:57:05;0.73;;;0.70;;
66012;SDS011;52783;50.502;8.190;2022-10-16T14:59:40;3.42;;;0.63;;
66012;SDS011;52783;50.502;8.190;2022-10-16T15:02:29;1.75;;;0.93;;
66012;SDS011;52783;50.502;8.190;2022-10-16T15:04:57;1.88;;;1.20;;
66012;SDS011;52783;50.502;8.190;2022-10-16T15:07:30;6.60;;;1.17;;
66012;SDS011;52783;50.502;8.190;2022-10-16T15:09:55;2.72;;;0.70;;
66012;SDS011;52783;50.502;8.190;2022-10-16T15:12:21;2.05;;;0.98;;
66012;SDS011;52783;50.502;8.190;2022-10-16T15:14:47;0.98;;;0.73;;
66012;SDS011;52783;50.502;8.190;2022-10-16T15:17:12;0.90;;;0.82;;
66012;SDS011;52783;50.502;8.190;2022-10-16T15:19:38;2.50;;;0.82;;
66012;SDS011;52783;50.502;8.190;2022-10-16T15:22:04;0.70;;;0.70;;
66012;SDS011;52783;50.502;8.190;2022-10-16T15:24:29;1.52;;;0.63;;
66012;SDS011;52783;50.502;8.190;2022-10-16T15:26:55;1.52;;;0.82;;
66012;SDS011;52783;50.502;8.190;2022-10-16T15:29:20;1.67;;;1.05;;
66012;SDS011;52783;50.502;8.190;2022-10-16T15:31:46;3.13;;;0.88;;
66012;SDS011;52783;50.502;8.190;2022-10-16T15:34:12;3.75;;;1.23;;
66012;SDS011;52783;50.502;8.190;2022-10-16T15:36:39;2.90;;;0.80;;
66012;SDS011;52783;50.502;8.190;2022-10-16T15:39:05;1.35;;;1.17;;
66012;SDS011;52783;50.502;8.190;2022-10-16T15:41:42;4.65;;;2.00;;
66012;SDS011;52783;50.502;8.190;2022-10-16T15:44:09;1.17;;;1.17;;
66012;SDS011;52783;50.502;8.190;2022-10-16T15:46:35;2.40;;;2.28;;
66012;SDS011;52783;50.502;8.190;2022-10-16T15:49:02;3.08;;;1.27;;
66012;SDS011;52783;50.502;8.190;2022-10-16T15:51:28;2.08;;;1.48;;
66012;SDS011;52783;50.502;8.190;2022-10-16T15:53:55;1.67;;;1.38;;
66012;SDS011;52783;50.502;8.190;2022-10-16T15:56:22;9.50;;;2.60;;
66012;SDS011;52783;50.502;8.190;2022-10-16T15:58:49;3.05;;;2.00;;
66012;SDS011;52783;50.502;8.190;2022-10-16T16:01:14;8.18;;;2.47;;
66012;SDS011;52783;50.502;8.190;2022-10-16T16:03:41;3.58;;;1.67;;
66012;SDS011;52783;50.502;8.190;2022-10-16T16:06:08;19.38;;;8.25;;
66012;SDS011;52783;50.502;8.190;2022-10-16T16:08:35;3.35;;;2.40;;
66012;SDS011;52783;50.502;8.190;2022-10-16T16:11:05;5.57;;;2.88;;
66012;SDS011;52783;50.502;8.190;2022-10-16T16:13:32;3.13;;;2.38;;
66012;SDS011;52783;50.502;8.190;2022-10-16T16:15:58;6.43;;;3.90;;
66012;SDS011;52783;50.502;8.190;2022-10-16T16:18:24;9.60;;;3.10;;
66012;SDS011;52783;50.502;8.190;2022-10-16T16:20:50;9.07;;;2.50;;
66012;SDS011;52783;50.502;8.190;2022-10-16T16:23:16;5.90;;;2.22;;
66012;SDS011;52783;50.502;8.190;2022-10-16T16:25:42;8.73;;;3.38;;
66012;SDS011;52783;50.502;8.190;2022-10-16T16:28:08;2.60;;;2.40;;
66012;SDS011;52783;50.502;8.190;2022-10-16T16:30:35;14.88;;;2.60;;
66012;SDS011;52783;50.502;8.190;2022-10-16T16:33:01;2.63;;;2.42;;
66012;SDS011;52783;50.502;8.190;2022-10-16T16:35:27;2.03;;;1.92;;
66012;SDS011;52783;50.502;8.190;2022-10-16T16:37:52;10.48;;;2.10;;
66012;SDS011;52783;50.502;8.190;2022-10-16T16:40:18;4.88;;;2.25;;
66012;SDS011;52783;50.502;8.190;2022-10-16T16:42:43;5.35;;;2.58;;
66012;SDS011;52783;50.502;8.190;2022-10-16T16:45:09;2.97;;;2.58;;
66012;SDS011;52783;50.502;8.190;2022-10-16T16:47:34;5.20;;;2.67;;
66012;SDS011;52783;50.502;8.190;2022-10-16T16:50:00;4.55;;;2.47;;
66012;SDS011;52783;50.502;8.190;2022-10-16T16:52:29;2.55;;;2.22;;
66012;SDS011;52783;50.502;8.190;2022-10-16T16:54:55;6.55;;;2.40;;
66012;SDS011;52783;50.502;8.190;2022-10-16T16:57:20;7.63;;;2.13;;
66012;SDS011;52783;50.502;8.190;2022-10-16T16:59:46;8.30;;;2.55;;
66012;SDS011;52783;50.502;8.190;2022-10-16T17:02:14;6.13;;;2.90;;
66012;SDS011;52783;50.502;8.190;2022-10-16T17:04:40;5.97;;;3.10;;